ENZ2LC LFBE-EGLC
Flight info
| Callsign | ENZ2LC |
|---|---|
| Flight time | N/A |
| Altitude | 30000 |
| Route | VELIN DCT UVELI DCT CNA DCT TUPAR UM184 USODA/N0422F240 UM184 DIKRO UZ273 ANGLO/N0422F250 UZ273 NEVIL |
| Aircraft | RJ1H/M-SDFGIRWY/LB1 |
Departure
| Time | 2026-04-30 14:33 |
|---|---|
| Airport | Bergerac Dordogne-Périgord airport (LFBE) |
Arrival
| Time | N/A |
|---|---|
| Airport | London City Airport (EGLC) |
| Time | Latitude | Longitude | Altitude | Speed | Heading |
|---|---|---|---|---|---|
| 2026-04-30 14:05 | 44.82258 | 0.51677 | 176 ft | 0 kts | 347° |
| 2026-04-30 14:29 | 44.82277 | 0.51670 | 177 ft | 4 kts | 342° |
| 2026-04-30 14:29 | 44.82309 | 0.51527 | 176 ft | 12 kts | 274° |
| 2026-04-30 14:30 | 44.82336 | 0.51024 | 176 ft | 22 kts | 274° |
| 2026-04-30 14:31 | 44.82390 | 0.50647 | 177 ft | 16 kts | 358° |
| 2026-04-30 14:31 | 44.82553 | 0.50519 | 177 ft | 13 kts | 219° |
| 2026-04-30 14:31 | 44.82521 | 0.50571 | 177 ft | 0 kts | 91° |
| 2026-04-30 14:32 | 44.82494 | 0.51114 | 177 ft | 84 kts | 95° |
| 2026-04-30 14:32 | 44.82437 | 0.52179 | 238 ft | 125 kts | 94° |
| 2026-04-30 14:32 | 44.82420 | 0.53448 | 597 ft | 133 kts | 90° |
| 2026-04-30 14:33 | 44.82476 | 0.54743 | 1097 ft | 137 kts | 84° |
| 2026-04-30 14:33 | 44.82405 | 0.57615 | 2187 ft | 151 kts | 97° |
| 2026-04-30 14:33 | 44.82287 | 0.59181 | 2599 ft | 169 kts | 97° |
| 2026-04-30 14:34 | 44.82148 | 0.60934 | 2966 ft | 193 kts | 97° |
| 2026-04-30 14:34 | 44.82426 | 0.62906 | 3302 ft | 225 kts | 59° |
| 2026-04-30 14:34 | 44.83698 | 0.64365 | 3698 ft | 252 kts | 22° |
| 2026-04-30 14:34 | 44.85501 | 0.64605 | 4157 ft | 272 kts | 349° |
| 2026-04-30 14:35 | 44.88771 | 0.61833 | 5769 ft | 281 kts | 327° |
| 2026-04-30 14:35 | 44.90473 | 0.60450 | 6658 ft | 284 kts | 334° |
| 2026-04-30 14:35 | 44.92281 | 0.59296 | 7547 ft | 287 kts | 334° |
| 2026-04-30 14:36 | 44.93772 | 0.57462 | 8423 ft | 289 kts | 300° |
| 2026-04-30 14:36 | 44.94450 | 0.54798 | 9213 ft | 291 kts | 281° |
| 2026-04-30 14:36 | 44.94833 | 0.52015 | 9862 ft | 294 kts | 278° |
| 2026-04-30 14:36 | 44.95144 | 0.49148 | 10479 ft | 297 kts | 276° |
| 2026-04-30 14:37 | 44.95400 | 0.46249 | 11214 ft | 299 kts | 274° |
| 2026-04-30 14:37 | 44.95627 | 0.43308 | 11945 ft | 305 kts | 274° |
| 2026-04-30 14:37 | 44.95859 | 0.40260 | 12345 ft | 320 kts | 274° |
| 2026-04-30 14:37 | 44.96103 | 0.37044 | 12564 ft | 338 kts | 274° |
| 2026-04-30 14:38 | 44.96370 | 0.33662 | 12705 ft | 354 kts | 274° |
| 2026-04-30 14:38 | 44.96658 | 0.30154 | 12864 ft | 365 kts | 275° |
| 2026-04-30 14:38 | 44.96982 | 0.26581 | 13260 ft | 368 kts | 275° |
| 2026-04-30 14:38 | 44.97311 | 0.22984 | 13711 ft | 370 kts | 275° |
| 2026-04-30 14:39 | 44.97785 | 0.19401 | 14115 ft | 375 kts | 288° |
| 2026-04-30 14:39 | 44.99143 | 0.16244 | 14526 ft | 381 kts | 311° |
| 2026-04-30 14:39 | 45.01123 | 0.13729 | 14938 ft | 385 kts | 322° |
| 2026-04-30 14:40 | 45.05741 | 0.09811 | 15765 ft | 390 kts | 333° |
| 2026-04-30 14:40 | 45.08204 | 0.08144 | 16143 ft | 394 kts | 334° |
| 2026-04-30 14:40 | 45.10667 | 0.06538 | 16537 ft | 396 kts | 335° |
| 2026-04-30 14:40 | 45.13208 | 0.04905 | 16960 ft | 397 kts | 335° |
| 2026-04-30 14:41 | 45.15729 | 0.03260 | 17341 ft | 399 kts | 334° |
| 2026-04-30 14:41 | 45.18218 | 0.01615 | 17695 ft | 402 kts | 334° |
| 2026-04-30 14:41 | 45.20747 | -0.00104 | 18061 ft | 404 kts | 334° |
| 2026-04-30 14:41 | 45.23281 | -0.01843 | 18439 ft | 405 kts | 333° |
| 2026-04-30 14:42 | 45.25827 | -0.03580 | 18831 ft | 407 kts | 333° |
| 2026-04-30 14:42 | 45.28386 | -0.05334 | 19189 ft | 410 kts | 333° |
| 2026-04-30 14:42 | 45.30964 | -0.07098 | 19524 ft | 413 kts | 333° |
| 2026-04-30 14:42 | 45.33555 | -0.08876 | 19886 ft | 415 kts | 333° |
| 2026-04-30 14:43 | 45.36162 | -0.10667 | 20232 ft | 417 kts | 333° |
| 2026-04-30 14:43 | 45.38780 | -0.12472 | 20565 ft | 419 kts | 333° |
| 2026-04-30 14:43 | 45.41411 | -0.14296 | 20880 ft | 421 kts | 333° |
| 2026-04-30 14:43 | 45.44051 | -0.16123 | 21185 ft | 423 kts | 333° |
| 2026-04-30 14:44 | 45.46719 | -0.17935 | 21437 ft | 426 kts | 334° |
| 2026-04-30 14:44 | 45.49393 | -0.19769 | 21737 ft | 428 kts | 333° |
| 2026-04-30 14:44 | 45.52072 | -0.21629 | 22022 ft | 430 kts | 333° |
| 2026-04-30 14:44 | 45.54768 | -0.23500 | 22305 ft | 431 kts | 334° |
| 2026-04-30 14:45 | 45.57481 | -0.25347 | 22574 ft | 433 kts | 334° |
| 2026-04-30 14:45 | 45.60196 | -0.27224 | 22841 ft | 435 kts | 333° |
| 2026-04-30 14:45 | 45.62919 | -0.29131 | 23105 ft | 437 kts | 334° |
| 2026-04-30 14:45 | 45.65685 | -0.30942 | 23344 ft | 439 kts | 337° |
| 2026-04-30 14:46 | 45.68550 | -0.32494 | 23569 ft | 442 kts | 341° |
| 2026-04-30 14:46 | 45.71474 | -0.33874 | 23820 ft | 443 kts | 342° |
| 2026-04-30 14:46 | 45.74433 | -0.35163 | 24059 ft | 445 kts | 343° |
| 2026-04-30 14:46 | 45.77402 | -0.36440 | 24293 ft | 446 kts | 343° |
| 2026-04-30 14:47 | 45.80377 | -0.37737 | 24574 ft | 447 kts | 343° |
| 2026-04-30 14:47 | 45.83353 | -0.39047 | 24851 ft | 447 kts | 343° |
| 2026-04-30 14:47 | 45.86293 | -0.40388 | 25351 ft | 441 kts | 342° |
| 2026-04-30 14:47 | 45.89171 | -0.41707 | 25742 ft | 439 kts | 343° |
| 2026-04-30 14:48 | 45.92075 | -0.43013 | 26103 ft | 437 kts | 343° |
| 2026-04-30 14:48 | 45.94972 | -0.44314 | 26439 ft | 436 kts | 343° |
| 2026-04-30 14:48 | 45.97865 | -0.45617 | 26767 ft | 435 kts | 343° |
| 2026-04-30 14:48 | 46.00751 | -0.46923 | 27085 ft | 434 kts | 343° |
| 2026-04-30 14:49 | 46.03640 | -0.48243 | 27265 ft | 437 kts | 344° |
| 2026-04-30 14:49 | 46.06525 | -0.49597 | 27603 ft | 435 kts | 344° |
| 2026-04-30 14:49 | 46.09408 | -0.50939 | 27926 ft | 434 kts | 344° |
| 2026-04-30 14:49 | 46.12278 | -0.52273 | 28231 ft | 433 kts | 345° |
| 2026-04-30 14:50 | 46.18008 | -0.54854 | 28813 ft | 431 kts | 345° |
| 2026-04-30 14:50 | 46.20861 | -0.56174 | 29104 ft | 430 kts | 344° |
| 2026-04-30 14:51 | 46.26540 | -0.58791 | 29652 ft | 428 kts | 345° |
| 2026-04-30 14:51 | 46.29382 | -0.60083 | 29894 ft | 426 kts | 345° |
| 2026-04-30 14:51 | 46.35023 | -0.62658 | 30076 ft | 420 kts | 345° |
| 2026-04-30 14:52 | 46.37806 | -0.63938 | 30091 ft | 419 kts | 344° |
| 2026-04-30 14:52 | 46.43163 | -0.67420 | 30100 ft | 426 kts | 332° |
| 2026-04-30 14:52 | 46.45638 | -0.69813 | 30105 ft | 428 kts | 324° |
| 2026-04-30 14:53 | 46.52392 | -0.78354 | 30102 ft | 430 kts | 319° |
| 2026-04-30 14:54 | 46.61236 | -0.89968 | 30102 ft | 430 kts | 320° |
| 2026-04-30 14:55 | 46.67970 | -0.98630 | 30102 ft | 431 kts | 320° |
| 2026-04-30 14:56 | 46.76958 | -1.10209 | 30098 ft | 431 kts | 320° |
| 2026-04-30 14:57 | 46.83693 | -1.18946 | 30103 ft | 432 kts | 319° |
| 2026-04-30 14:58 | 46.92662 | -1.30667 | 30094 ft | 433 kts | 319° |
| 2026-04-30 14:58 | 46.94969 | -1.33389 | 30093 ft | 430 kts | 331° |
| 2026-04-30 14:58 | 47.00544 | -1.36295 | 30092 ft | 426 kts | 349° |
| 2026-04-30 14:59 | 47.06396 | -1.37384 | 30095 ft | 423 kts | 360° |
| 2026-04-30 15:00 | 47.15213 | -1.37772 | 30085 ft | 423 kts | 1° |
| 2026-04-30 15:01 | 47.27015 | -1.38430 | 30073 ft | 425 kts | 360° |
| 2026-04-30 15:01 | 47.35879 | -1.39014 | 30070 ft | 425 kts | 360° |
| 2026-04-30 15:02 | 47.41798 | -1.39403 | 30071 ft | 426 kts | 360° |
| 2026-04-30 15:03 | 47.56593 | -1.40345 | 30075 ft | 427 kts | 360° |
| 2026-04-30 15:04 | 47.71462 | -1.41284 | 30066 ft | 429 kts | 360° |
| 2026-04-30 15:06 | 47.85357 | -1.42329 | 30062 ft | 429 kts | 359° |
| 2026-04-30 15:07 | 47.97290 | -1.43229 | 30056 ft | 429 kts | 359° |
| 2026-04-30 15:08 | 48.09236 | -1.44103 | 30055 ft | 431 kts | 360° |
| 2026-04-30 15:09 | 48.24165 | -1.45176 | 30053 ft | 430 kts | 359° |
| 2026-04-30 15:10 | 48.36161 | -1.46049 | 30053 ft | 431 kts | 359° |
| 2026-04-30 15:11 | 48.54104 | -1.47355 | 30052 ft | 431 kts | 359° |
| 2026-04-30 15:13 | 48.69095 | -1.48444 | 30060 ft | 432 kts | 360° |
| 2026-04-30 15:14 | 48.90089 | -1.49070 | 30066 ft | 427 kts | 9° |
| 2026-04-30 15:16 | 49.04073 | -1.42159 | 30074 ft | 423 kts | 22° |
| 2026-04-30 15:17 | 49.15078 | -1.35895 | 30077 ft | 424 kts | 22° |
| 2026-04-30 15:19 | 49.37172 | -1.23353 | 30096 ft | 424 kts | 22° |